Time;durP1;ratioP1;P1;durP2;ratioP2;P2;SDS_P1;SDS_P2;PMS_P1;PMS_P2;Temp;Humidity;BMP_temperature;BMP_pressure;BME280_temperature;BME280_humidity;BME280_pressure;Samples;Min_cycle;Max_cycle;Signal;HPM_P1;HPM_P2
2023/11/08 00:01:13;;;;;;;0.10;0.10;;;;;;;7.77;85.99;99019.00;4950731;28;20049;-71
2023/11/08 00:03:40;;;;;;;0.10;0.10;;;;;;;7.78;85.98;99023.34;4940016;28;20044;-70
2023/11/08 00:06:08;;;;;;;0.10;0.10;;;;;;;7.78;86.34;99027.97;4939005;28;20049;-70
2023/11/08 00:08:34;;;;;;;0.10;0.10;;;;;;;7.79;86.03;99024.97;4954802;28;20041;-71
2023/11/08 00:11:01;;;;;;;0.10;0.10;;;;;;;7.75;85.81;99026.63;4938519;28;20517;-71
2023/11/08 00:13:27;;;;;;;0.10;0.10;;;;;;;7.68;85.68;99014.38;4950171;28;20055;-71
2023/11/08 00:15:53;;;;;;;0.10;0.10;;;;;;;7.71;84.69;99006.50;4938131;28;20097;-70
2023/11/08 00:18:19;;;;;;;0.10;0.10;;;;;;;7.72;85.25;99018.19;4945121;28;20051;-70
2023/11/08 00:20:46;;;;;;;0.10;0.10;;;;;;;7.73;84.95;99015.19;4956811;28;20399;-70
2023/11/08 00:23:13;;;;;;;0.10;0.10;;;;;;;7.74;84.83;99019.53;4947352;28;20565;-71
2023/11/08 00:25:39;;;;;;;;;;;;;;;7.74;84.84;99025.00;4953916;28;20059;-70
2023/11/08 00:28:05;;;;;;;0.10;0.10;;;;;;;7.72;84.24;99020.91;4957541;28;19926;-70
2023/11/08 00:30:31;;;;;;;0.10;0.10;;;;;;;7.69;84.26;99032.34;4948151;28;20128;-70
2023/11/08 00:32:58;;;;;;;0.10;0.10;;;;;;;7.69;84.83;99025.00;4962822;28;20041;-71
2023/11/08 00:35:26;;;;;;;0.10;0.10;;;;;;;7.68;85.12;99026.09;4990388;28;20071;-70
2023/11/08 00:37:52;;;;;;;0.10;0.10;;;;;;;7.63;84.88;99032.34;4957236;28;20047;-71
2023/11/08 00:40:19;;;;;;;0.10;0.10;;;;;;;7.61;85.05;99022.81;4942346;28;20048;-70
2023/11/08 00:42:45;;;;;;;;;;;;;;;7.60;85.24;99019.31;4938732;29;20051;-70
2023/11/08 00:45:11;;;;;;;0.10;0.10;;;;;;;7.58;85.15;99016.06;4951519;28;19971;-70
2023/11/08 00:47:37;;;;;;;0.10;0.10;;;;;;;7.52;85.69;99022.56;4941977;28;20070;-69
2023/11/08 00:50:04;;;;;;;0.10;0.10;;;;;;;7.50;86.23;99019.31;4948061;28;20108;-70
2023/11/08 00:52:31;;;;;;;0.10;0.10;;;;;;;7.49;86.45;99014.97;4960279;28;20055;-70
2023/11/08 00:54:57;;;;;;;0.10;0.10;;;;;;;7.43;86.74;99010.63;4949356;28;20047;-70
2023/11/08 00:57:25;;;;;;;0.10;0.10;;;;;;;7.50;86.70;99016.59;4940512;28;20046;-71
2023/11/08 00:59:51;;;;;;;0.00;0.00;;;;;;;7.51;85.21;99018.22;4942077;28;20043;-71
2023/11/08 01:02:17;;;;;;;0.10;0.10;;;;;;;7.50;85.54;99031.03;4936235;28;20070;-71
2023/11/08 01:04:43;;;;;;;0.05;0.05;;;;;;;7.51;85.76;99027.22;4940140;28;20047;-70
2023/11/08 01:07:10;;;;;;;0.00;0.00;;;;;;;7.53;86.12;99026.91;4943863;28;20318;-70
2023/11/08 01:09:36;;;;;;;0.00;0.00;;;;;;;7.56;86.21;99042.69;4958561;28;20055;-71
2023/11/08 01:12:03;;;;;;;0.10;0.10;;;;;;;7.56;85.34;99020.94;4959506;28;20081;-70
2023/11/08 01:14:30;;;;;;;0.00;0.00;;;;;;;7.56;84.69;99015.47;4951752;28;20077;-70
2023/11/08 01:16:57;;;;;;;0.10;0.10;;;;;;;7.48;84.79;99018.78;4955517;28;20146;-71
2023/11/08 01:19:24;;;;;;;0.10;0.10;;;;;;;7.49;85.34;99031.28;4942908;28;20138;-70
2023/11/08 01:21:50;;;;;;;;;;;;;;;7.46;85.76;99024.47;4953564;28;20101;-71
2023/11/08 01:24:17;;;;;;;0.10;0.10;;;;;;;7.49;85.13;99029.38;4952274;28;19961;-70
2023/11/08 01:26:43;;;;;;;0.10;0.10;;;;;;;7.56;84.67;99033.72;4951048;28;20055;-70
2023/11/08 01:29:10;;;;;;;0.10;0.10;;;;;;;7.57;84.83;99030.75;4958205;28;20113;-70
2023/11/08 01:31:37;;;;;;;0.10;0.10;;;;;;;7.59;85.12;99023.13;4950272;28;20046;-70
2023/11/08 01:34:04;;;;;;;0.10;0.10;;;;;;;7.59;85.16;99031.28;4939696;28;20054;-72
2023/11/08 01:36:30;;;;;;;0.10;0.10;;;;;;;7.56;85.19;99026.38;4938994;28;20154;-70
2023/11/08 01:38:58;;;;;;;0.10;0.10;;;;;;;7.54;85.06;99014.94;4941100;28;20495;-70
2023/11/08 01:41:24;;;;;;;0.10;0.10;;;;;;;7.64;85.15;99023.09;4973435;28;20054;-70
2023/11/08 01:43:51;;;;;;;0.10;0.10;;;;;;;7.65;85.31;99021.22;4946892;28;20059;-70
2023/11/08 01:46:21;;;;;;;0.10;0.10;;;;;;;7.65;85.10;99019.28;4959482;28;20050;-70
2023/11/08 01:48:51;;;;;;;0.10;0.10;;;;;;;7.61;85.21;99018.22;4960128;28;20112;-70
2023/11/08 01:51:18;;;;;;;0.10;0.10;;;;;;;7.69;85.13;99016.00;4942521;28;20129;-70
2023/11/08 01:53:46;;;;;;;0.10;0.10;;;;;;;7.67;85.20;99024.47;4956125;28;20070;-70
2023/11/08 01:56:14;;;;;;;0.10;0.10;;;;;;;7.61;85.28;99015.50;4954846;28;20058;-70
2023/11/08 01:58:41;;;;;;;0.10;0.10;;;;;;;7.54;85.40;99022.31;4948918;28;20191;-70
2023/11/08 02:01:09;;;;;;;0.10;0.10;;;;;;;7.48;85.03;99040.53;4951105;28;20078;-70
2023/11/08 02:03:37;;;;;;;0.10;0.10;;;;;;;7.37;85.30;99037.00;4959824;28;20077;-70
2023/11/08 02:06:07;;;;;;;0.10;0.10;;;;;;;7.26;86.03;99038.09;4952233;28;20149;-71
2023/11/08 02:08:34;;;;;;;0.10;0.10;;;;;;;7.23;86.57;99034.81;4940055;29;20046;-71
2023/11/08 02:11:01;;;;;;;0.10;0.10;;;;;;;7.16;86.57;99039.69;4941092;28;20067;-71
2023/11/08 02:13:27;;;;;;;0.10;0.10;;;;;;;7.14;86.90;99043.78;4956182;28;20063;-71
2023/11/08 02:15:54;;;;;;;0.10;0.10;;;;;;;7.12;86.84;99043.25;4939341;29;20048;-71
2023/11/08 02:18:20;;;;;;;0.00;0.00;;;;;;;7.06;87.27;99034.28;4942567;28;20142;-71
2023/11/08 02:20:48;;;;;;;0.10;0.10;;;;;;;7.03;87.39;99037.53;4940963;28;20138;-70
2023/11/08 02:23:16;;;;;;;0.00;0.00;;;;;;;7.10;87.65;99038.06;4947477;28;20042;-70
2023/11/08 02:25:45;;;;;;;0.10;0.10;;;;;;;7.10;87.76;99046.22;4958834;28;20051;-70
2023/11/08 02:28:11;;;;;;;0.10;0.10;;;;;;;7.12;88.11;99043.25;4959892;28;20130;-70
2023/11/08 02:30:38;;;;;;;0.00;0.00;;;;;;;7.14;88.24;99047.31;4960557;28;20097;-70
2023/11/08 02:33:04;;;;;;;0.10;0.10;;;;;;;7.23;87.71;99048.41;4945888;28;20514;-70
2023/11/08 02:35:30;;;;;;;0.10;0.10;;;;;;;7.30;87.10;99042.72;4943341;28;20426;-70
2023/11/08 02:37:57;;;;;;;0.10;0.10;;;;;;;7.33;87.04;99053.03;4954955;28;20295;-71
2023/11/08 02:40:23;;;;;;;0.10;0.10;;;;;;;7.37;86.76;99037.00;4940825;28;20053;-71
2023/11/08 02:42:50;;;;;;;0.10;0.10;;;;;;;7.39;87.15;99042.97;4957691;28;20459;-71
2023/11/08 02:45:16;;;;;;;0.10;0.10;;;;;;;7.35;86.82;99033.75;4947403;28;20043;-71
2023/11/08 02:47:43;;;;;;;0.10;0.10;;;;;;;7.28;87.19;99033.19;4939510;28;20133;-71
2023/11/08 02:50:10;;;;;;;0.10;0.10;;;;;;;7.23;87.47;99034.00;4938182;28;20047;-71
2023/11/08 02:52:36;;;;;;;0.10;0.10;;;;;;;7.17;87.80;99032.38;4943517;28;20530;-71
2023/11/08 02:55:03;;;;;;;0.10;0.10;;;;;;;7.13;88.13;99031.28;4947477;28;20051;-71
2023/11/08 02:57:30;;;;;;;0.10;0.10;;;;;;;7.06;88.23;99024.19;4946414;28;20051;-71
2023/11/08 02:59:58;;;;;;;0.00;0.00;;;;;;;7.03;88.64;99032.91;4958916;28;20046;-70
2023/11/08 03:02:24;;;;;;;0.10;0.10;;;;;;;6.96;89.16;99035.06;4938809;28;20065;-70
2023/11/08 03:04:51;;;;;;;0.10;0.10;;;;;;;6.91;89.82;99032.34;4945308;28;20422;-71
2023/11/08 03:07:19;;;;;;;0.10;0.10;;;;;;;6.85;90.17;99031.50;4939170;28;20134;-70
2023/11/08 03:09:44;;;;;;;;;;;;;;;6.84;90.61;99029.06;4940487;28;20067;-70
2023/11/08 03:12:11;;;;;;;0.10;0.10;;;;;;;6.92;90.38;99036.69;4938166;28;19926;-71
2023/11/08 03:14:37;;;;;;;0.10;0.10;;;;;;;6.94;89.71;99038.06;4941331;28;20589;-71
2023/11/08 03:17:05;;;;;;;0.10;0.10;;;;;;;6.92;89.79;99040.22;4940415;28;20046;-71
2023/11/08 03:19:31;;;;;;;0.10;0.10;;;;;;;6.98;89.58;99041.06;4938998;28;20134;-70
2023/11/08 03:22:00;;;;;;;0.10;0.10;;;;;;;6.94;89.53;99037.22;4939948;28;20058;-70
2023/11/08 03:24:26;;;;;;;0.10;0.10;;;;;;;7.00;89.83;99051.63;4940452;28;20133;-71
2023/11/08 03:26:52;;;;;;;0.10;0.10;;;;;;;7.04;89.46;99048.13;4946534;28;20188;-70
2023/11/08 03:29:20;;;;;;;0.10;0.10;;;;;;;7.12;88.83;99049.50;4958751;28;20053;-71
2023/11/08 03:31:46;;;;;;;0.00;0.00;;;;;;;7.17;88.80;99057.63;4958575;28;20050;-70
2023/11/08 03:34:14;;;;;;;0.00;0.00;;;;;;;7.24;88.43;99066.38;4942750;28;20058;-71
2023/11/08 03:36:42;;;;;;;;;;;;;;;7.31;88.04;99060.66;4937328;28;20053;-71
2023/11/08 03:39:09;;;;;;;0.10;0.10;;;;;;;7.24;87.60;99041.06;4939160;28;19937;-71
2023/11/08 03:41:36;;;;;;;0.00;0.00;;;;;;;7.32;87.41;99061.47;4943057;28;20070;-71
2023/11/08 03:44:05;;;;;;;0.00;0.00;;;;;;;7.30;87.78;99055.47;4939445;28;20115;-70
2023/11/08 03:46:32;;;;;;;0.10;0.10;;;;;;;7.34;87.94;99053.88;4936588;28;20113;-70
2023/11/08 03:48:58;;;;;;;0.00;0.00;;;;;;;7.34;87.80;99060.13;4937945;29;20047;-70
2023/11/08 03:51:27;;;;;;;0.10;0.10;;;;;;;7.38;87.74;99058.47;4940396;28;20105;-70
2023/11/08 03:53:53;;;;;;;0.10;0.10;;;;;;;7.36;87.47;99063.38;4943456;28;20039;-70
2023/11/08 03:56:20;;;;;;;0.10;0.10;;;;;;;7.29;87.15;99071.00;4939163;28;20162;-70
2023/11/08 03:58:46;;;;;;;0.10;0.10;;;;;;;7.23;87.20;99062.00;4939132;29;20077;-69
2023/11/08 04:01:12;;;;;;;0.10;0.10;;;;;;;7.24;87.42;99068.25;4948606;28;20040;-69
2023/11/08 04:03:38;;;;;;;0.10;0.10;;;;;;;7.22;87.47;99063.09;4929474;28;20058;-70
2023/11/08 04:06:05;;;;;;;0.10;0.10;;;;;;;7.23;87.47;99064.72;4945776;28;20073;-70
2023/11/08 04:08:33;;;;;;;0.00;0.00;;;;;;;7.27;87.42;99054.13;4935147;28;20120;-71
2023/11/08 04:11:01;;;;;;;0.10;0.10;;;;;;;7.28;87.41;99049.50;4942788;28;20047;-70
2023/11/08 04:13:27;;;;;;;0.10;0.10;;;;;;;7.41;86.79;99072.63;4944895;28;20059;-70
2023/11/08 04:15:55;;;;;;;0.10;0.10;;;;;;;7.42;86.66;99074.28;4957467;28;20043;-70
2023/11/08 04:18:22;;;;;;;0.00;0.00;;;;;;;7.44;86.35;99081.06;4956544;28;20556;-69
2023/11/08 04:20:48;;;;;;;0.10;0.10;;;;;;;7.44;86.72;99077.53;4953169;28;20047;-70
2023/11/08 04:23:15;;;;;;;0.10;0.10;;;;;;;7.45;86.38;99084.59;4947202;28;20051;-69
2023/11/08 04:25:44;;;;;;;0.10;0.10;;;;;;;7.44;86.50;99080.25;4948564;28;20078;-70
2023/11/08 04:28:11;;;;;;;0.10;0.10;;;;;;;7.44;86.26;99085.69;4942443;28;20047;-69
2023/11/08 04:30:37;;;;;;;0.10;0.10;;;;;;;7.41;86.64;99084.31;4940427;28;20059;-70
2023/11/08 04:33:03;;;;;;;0.10;0.10;;;;;;;7.41;86.53;99084.31;4943447;28;20043;-70
2023/11/08 04:35:29;;;;;;;0.10;0.10;;;;;;;7.44;86.53;99085.69;4939388;28;20059;-69
2023/11/08 04:37:55;;;;;;;0.10;0.10;;;;;;;7.45;86.49;99090.03;4952912;28;20073;-69
2023/11/08 04:40:22;;;;;;;0.10;0.10;;;;;;;7.44;86.60;99082.97;4961370;28;20051;-70
2023/11/08 04:42:50;;;;;;;0.08;0.08;;;;;;;7.41;86.29;99078.06;4922441;28;20138;-70
2023/11/08 04:45:15;;;;;;;;;;;;;;;7.43;87.06;99090.31;4949093;28;20495;-70
2023/11/08 04:47:41;;;;;;;0.10;0.10;;;;;;;7.45;86.85;99085.41;4941308;28;19992;-72
2023/11/08 04:50:08;;;;;;;0.10;0.10;;;;;;;7.48;86.94;99084.06;4923700;29;20522;-71
2023/11/08 04:52:34;;;;;;;0.10;0.10;;;;;;;7.49;86.45;99093.84;4941751;28;20057;-71
2023/11/08 04:55:01;;;;;;;0.10;0.10;;;;;;;7.43;86.46;99090.31;4976504;28;20116;-71
2023/11/08 04:57:27;;;;;;;0.10;0.10;;;;;;;7.44;86.81;99089.22;4945177;28;20043;-72
2023/11/08 04:59:55;;;;;;;0.10;0.10;;;;;;;7.46;86.99;99086.25;4952311;28;20043;-72
2023/11/08 05:02:21;;;;;;;0.10;0.10;;;;;;;7.50;86.72;99087.31;4952784;28;20062;-72
2023/11/08 05:04:49;;;;;;;0.10;0.10;;;;;;;7.52;86.42;99094.13;4947186;28;20047;-72
2023/11/08 05:07:17;;;;;;;0.10;0.10;;;;;;;7.56;86.47;99094.38;4946037;28;20059;-72
2023/11/08 05:09:44;;;;;;;0.10;0.10;;;;;;;7.53;86.27;99092.22;4974498;28;20142;-71
2023/11/08 05:12:13;;;;;;;0.10;0.10;;;;;;;7.52;86.33;99096.84;4958170;28;20555;-69
2023/11/08 05:14:40;;;;;;;0.10;0.10;;;;;;;7.48;86.41;99095.75;4950309;28;20051;-68
2023/11/08 05:17:08;;;;;;;0.00;0.00;;;;;;;7.45;86.28;99098.22;4955531;28;20472;-70
2023/11/08 05:19:34;;;;;;;;;;;;;;;7.45;86.23;99099.00;4942259;28;20048;-69
2023/11/08 05:22:00;;;;;;;0.10;0.10;;;;;;;7.47;86.18;99099.53;4941977;28;19942;-69
2023/11/08 05:24:27;;;;;;;0.10;0.10;;;;;;;7.44;85.99;99104.72;4938974;28;20082;-69
2023/11/08 05:26:54;;;;;;;0.10;0.10;;;;;;;7.47;86.29;99099.53;4940563;28;20518;-68
2023/11/08 05:29:21;;;;;;;0.10;0.10;;;;;;;7.46;86.30;99105.28;4954072;28;20073;-69
2023/11/08 05:31:49;;;;;;;0.10;0.10;;;;;;;7.50;86.44;99106.34;4956236;28;20047;-68
2023/11/08 05:34:17;;;;;;;0.10;0.10;;;;;;;7.56;86.28;99104.47;4938505;28;20426;-68
2023/11/08 05:36:43;;;;;;;;;;;;;;;7.59;86.02;99112.91;4937564;28;20051;-69
2023/11/08 05:39:09;;;;;;;0.10;0.10;;;;;;;7.59;85.64;99104.75;4928561;28;19956;-68
2023/11/08 05:41:35;;;;;;;0.10;0.10;;;;;;;7.60;85.34;99116.44;4941028;28;20055;-68
2023/11/08 05:44:03;;;;;;;0.10;0.10;;;;;;;7.62;85.42;99119.69;4951940;28;20537;-69
2023/11/08 05:46:30;;;;;;;0.10;0.10;;;;;;;7.61;85.13;99116.16;4920653;28;20062;-68
2023/11/08 05:48:57;;;;;;;0.10;0.10;;;;;;;7.63;85.30;99118.59;4931674;28;20894;-68
2023/11/08 05:51:27;;;;;;;0.10;0.10;;;;;;;7.64;84.89;99120.22;4985851;28;20052;-68
2023/11/08 05:53:54;;;;;;;0.10;0.10;;;;;;;7.59;84.19;99114.78;4976465;28;20050;-68
2023/11/08 05:56:20;;;;;;;0.10;0.10;;;;;;;7.52;83.73;99115.06;4962893;28;20050;-68
2023/11/08 05:58:46;;;;;;;0.10;0.10;;;;;;;7.47;83.89;99121.31;4946526;28;20039;-68
2023/11/08 06:01:15;;;;;;;0.10;0.10;;;;;;;7.46;83.73;99114.22;4940287;28;20044;-68
2023/11/08 06:03:41;;;;;;;0.10;0.10;;;;;;;7.46;84.24;99135.19;4941440;28;20545;-68
2023/11/08 06:06:07;;;;;;;0.00;0.00;;;;;;;7.50;84.42;99126.22;4941165;28;20035;-68
2023/11/08 06:08:36;;;;;;;0.15;0.10;;;;;;;7.55;84.17;99136.28;4940290;28;20124;-68
2023/11/08 06:11:04;;;;;;;0.10;0.10;;;;;;;7.50;83.98;99131.66;4945012;28;20479;-69
2023/11/08 06:13:35;;;;;;;0.10;0.10;;;;;;;7.51;84.54;99137.91;4946335;28;20051;-68
2023/11/08 06:16:01;;;;;;;0.10;0.10;;;;;;;7.50;84.29;99133.56;4941795;28;20540;-68
2023/11/08 06:18:30;;;;;;;0.10;0.10;;;;;;;7.51;84.11;99146.91;4945784;28;20134;-68
2023/11/08 06:20:57;;;;;;;0.10;0.10;;;;;;;7.47;83.96;99145.78;4942339;28;20077;-68
2023/11/08 06:23:23;;;;;;;0.10;0.10;;;;;;;7.45;83.52;99131.66;4974377;28;20043;-68
2023/11/08 06:25:52;;;;;;;0.00;0.00;;;;;;;7.46;83.74;99135.19;4945852;28;20079;-68
2023/11/08 06:28:18;;;;;;;0.10;0.10;;;;;;;7.45;83.37;99139.81;4941830;28;20050;-68
2023/11/08 06:30:44;;;;;;;0.10;0.10;;;;;;;7.44;83.52;99142.81;4941320;28;20054;-68
2023/11/08 06:33:10;;;;;;;0.10;0.10;;;;;;;7.48;83.48;99139.25;4943509;28;20043;-68
2023/11/08 06:35:39;;;;;;;0.10;0.10;;;;;;;7.46;83.44;99138.72;4942705;28;20078;-68
2023/11/08 06:38:05;;;;;;;0.10;0.10;;;;;;;7.53;83.77;99141.19;4950281;28;20052;-68
2023/11/08 06:40:31;;;;;;;0.10;0.10;;;;;;;7.59;83.37;99144.72;4944487;28;20054;-68
2023/11/08 06:42:59;;;;;;;0.10;0.10;;;;;;;7.56;83.23;99142.56;4941319;28;20051;-68
2023/11/08 06:45:25;;;;;;;0.10;0.10;;;;;;;7.59;82.36;99133.84;4939879;28;20143;-68
2023/11/08 06:47:52;;;;;;;0.10;0.10;;;;;;;7.57;82.90;99136.84;4933793;28;20061;-70
2023/11/08 06:50:18;;;;;;;0.10;0.10;;;;;;;7.54;82.78;99134.66;4942935;28;20086;-70
2023/11/08 06:52:44;;;;;;;0.10;0.10;;;;;;;7.55;82.84;99138.19;4946642;28;20043;-70
2023/11/08 06:55:10;;;;;;;0.10;0.10;;;;;;;7.56;82.59;99145.28;4942748;28;20043;-70
2023/11/08 06:57:37;;;;;;;0.05;0.05;;;;;;;7.53;81.99;99138.44;4947415;28;20352;-68
2023/11/08 07:00:07;;;;;;;0.10;0.10;;;;;;;7.47;82.45;99137.63;4942928;28;20487;-68
2023/11/08 07:02:34;;;;;;;0.10;0.10;;;;;;;7.52;82.64;99151.25;4945620;28;20623;-70
2023/11/08 07:05:00;;;;;;;0.10;0.10;;;;;;;7.60;82.65;99144.47;4942167;28;20074;-68
2023/11/08 07:07:27;;;;;;;0.10;0.10;;;;;;;7.55;82.45;99141.72;4942578;28;20070;-70
2023/11/08 07:09:54;;;;;;;0.10;0.10;;;;;;;7.59;82.33;99147.44;4929067;28;20077;-70
2023/11/08 07:12:20;;;;;;;0.10;0.10;;;;;;;7.63;82.27;99148.53;4941698;28;20059;-70
2023/11/08 07:14:46;;;;;;;0.10;0.10;;;;;;;7.60;82.51;99147.19;4945311;28;20082;-69
2023/11/08 07:17:14;;;;;;;0.10;0.10;;;;;;;7.55;82.22;99135.47;4958762;28;20053;-68
2023/11/08 07:19:42;;;;;;;0.10;0.10;;;;;;;7.64;82.12;99145.53;4943748;28;20093;-70
2023/11/08 07:22:09;;;;;;;0.10;0.10;;;;;;;7.74;82.24;99146.66;4954584;28;20134;-68
2023/11/08 07:24:36;;;;;;;0.10;0.10;;;;;;;7.82;81.57;99146.09;4942758;28;20054;-70
2023/11/08 07:27:03;;;;;;;0.10;0.10;;;;;;;7.87;81.06;99154.25;4946006;28;20057;-70
2023/11/08 07:29:29;;;;;;;0.10;0.10;;;;;;;7.90;80.55;99147.44;4945333;28;20079;-69
2023/11/08 07:31:55;;;;;;;0.10;0.10;;;;;;;7.90;80.35;99155.63;4936495;28;20074;-68
2023/11/08 07:34:23;;;;;;;0.10;0.10;;;;;;;7.92;80.29;99159.72;4939842;28;20128;-68
2023/11/08 07:36:51;;;;;;;;;;;;;;;8.02;80.04;99153.44;4933736;28;20062;-68
2023/11/08 07:39:17;;;;;;;0.10;0.10;;;;;;;8.05;79.18;99138.47;4928355;28;19934;-68
2023/11/08 07:41:43;;;;;;;0.10;0.10;;;;;;;8.25;78.70;99162.09;4914945;28;20068;-68
2023/11/08 07:44:10;;;;;;;1.10;0.20;;;;;;;8.22;78.22;99162.66;4943012;28;20118;-69
2023/11/08 07:46:36;;;;;;;0.10;0.10;;;;;;;8.15;78.40;99165.66;4936824;28;20058;-68
2023/11/08 07:49:03;;;;;;;0.10;0.10;;;;;;;8.12;78.39;99174.38;4941735;28;20058;-70
2023/11/08 07:51:31;;;;;;;0.10;0.10;;;;;;;8.07;78.79;99174.41;4937208;28;20047;-70
2023/11/08 07:53:59;;;;;;;0.10;0.10;;;;;;;8.07;78.65;99177.94;4939354;28;20051;-70
2023/11/08 07:56:25;;;;;;;0.10;0.10;;;;;;;8.00;78.74;99177.41;4943392;28;20051;-70
2023/11/08 07:58:55;;;;;;;0.10;0.10;;;;;;;7.99;79.00;99170.31;4938562;28;20348;-70
2023/11/08 08:01:21;;;;;;;0.10;0.10;;;;;;;8.03;79.04;99179.56;4941569;28;20083;-70
2023/11/08 08:03:47;;;;;;;0.10;0.10;;;;;;;8.00;78.99;99152.06;4942145;28;20051;-71
2023/11/08 08:06:14;;;;;;;0.10;0.10;;;;;;;7.99;78.82;99172.22;4945972;28;20046;-70
2023/11/08 08:08:43;;;;;;;0.10;0.10;;;;;;;8.00;78.98;99177.41;4942362;28;20063;-70
2023/11/08 08:11:11;;;;;;;0.10;0.10;;;;;;;8.00;79.41;99177.41;4951562;28;20042;-68
2023/11/08 08:13:37;;;;;;;0.10;0.10;;;;;;;7.95;79.91;99183.66;4940062;28;20540;-68
2023/11/08 08:16:04;;;;;;;0.10;0.10;;;;;;;7.94;80.10;99181.19;4947621;28;20046;-68
2023/11/08 08:18:32;;;;;;;0.10;0.10;;;;;;;8.06;79.50;99187.19;4940473;28;20051;-68
2023/11/08 08:20:59;;;;;;;0.10;0.10;;;;;;;8.10;79.45;99192.91;4927689;28;20086;-68
2023/11/08 08:23:25;;;;;;;0.10;0.10;;;;;;;8.09;79.36;99175.75;4965468;28;20043;-68
2023/11/08 08:25:54;;;;;;;0.10;0.10;;;;;;;8.26;79.03;99193.69;4939436;28;20872;-68
2023/11/08 08:28:20;;;;;;;0.13;0.13;;;;;;;8.36;78.71;99198.34;4952209;28;20455;-68
2023/11/08 08:30:46;;;;;;;0.10;0.10;;;;;;;8.36;78.27;99190.16;4953518;28;20086;-69
2023/11/08 08:33:12;;;;;;;0.10;0.10;;;;;;;8.28;78.02;99185.25;4955689;28;20546;-68
2023/11/08 08:35:39;;;;;;;0.10;0.10;;;;;;;8.29;77.97;99190.44;4939113;28;20541;-68
2023/11/08 08:38:05;;;;;;;0.10;0.10;;;;;;;8.27;77.99;99198.06;5003672;28;20045;-69
2023/11/08 08:40:31;;;;;;;0.10;0.10;;;;;;;8.24;77.98;99204.06;5036749;28;20075;-68
2023/11/08 08:42:59;;;;;;;0.10;0.10;;;;;;;8.25;77.89;99197.50;4968363;28;20637;-70
2023/11/08 08:45:25;;;;;;;;;;;;;;;8.32;77.86;99200.78;4943859;28;20519;-70
2023/11/08 08:47:53;;;;;;;0.10;0.10;;;;;;;8.39;77.51;99200.50;5024320;28;19990;-70
2023/11/08 08:50:20;;;;;;;0.10;0.10;;;;;;;8.48;77.36;99198.03;4971124;28;20411;-70
2023/11/08 08:52:46;;;;;;;0.10;0.10;;;;;;;8.44;77.44;99202.41;4947358;28;20108;-68
2023/11/08 08:55:15;;;;;;;0.10;0.10;;;;;;;8.33;77.38;99207.03;4940473;28;20043;-68
2023/11/08 08:57:46;;;;;;;0.25;0.10;;;;;;;8.18;77.82;99202.44;4944401;28;20051;-68
2023/11/08 09:00:18;;;;;;;0.10;0.10;;;;;;;8.07;78.11;99216.03;4940807;28;20082;-68
2023/11/08 09:02:45;;;;;;;0.10;0.10;;;;;;;8.07;78.11;99210.59;4966952;28;20378;-68
2023/11/08 09:05:12;;;;;;;0.10;0.10;;;;;;;8.05;78.24;99211.97;4945650;28;20047;-70
2023/11/08 09:07:39;;;;;;;0.10;0.10;;;;;;;8.03;78.61;99206.78;4921391;28;20055;-70
2023/11/08 09:10:06;;;;;;;0.10;0.10;;;;;;;8.07;77.89;99209.81;4943997;28;20043;-70
2023/11/08 09:12:32;;;;;;;;;;;;;;;8.22;77.74;99215.25;4944713;28;20071;-68
2023/11/08 09:15:01;;;;;;;0.10;0.10;;;;;;;8.47;76.86;99205.38;4941418;28;19926;-68
2023/11/08 09:17:32;;;;;;;0.15;0.15;;;;;;;8.55;75.15;99198.59;4939634;28;20140;-68
2023/11/08 09:19:58;;;;;;;0.10;0.10;;;;;;;8.72;74.85;99184.66;4973496;28;20050;-68
2023/11/08 09:22:25;;;;;;;0.10;0.10;;;;;;;8.77;73.94;99184.63;4956653;28;20039;-70
2023/11/08 09:24:51;;;;;;;0.20;0.20;;;;;;;9.04;73.40;99199.81;4957429;28;20470;-70
2023/11/08 09:27:18;;;;;;;0.17;0.17;;;;;;;9.05;72.31;99197.88;4943370;28;20051;-70
2023/11/08 09:29:45;;;;;;;0.43;0.10;;;;;;;8.98;73.03;99194.66;4951298;28;20492;-70
2023/11/08 09:32:11;;;;;;;0.10;0.10;;;;;;;8.97;73.17;99193.81;4958227;28;20531;-70
2023/11/08 09:34:39;;;;;;;0.10;0.10;;;;;;;8.93;72.62;99198.22;4943491;28;20051;-70
2023/11/08 09:37:06;;;;;;;0.10;0.10;;;;;;;8.78;72.39;99199.09;4981546;28;20068;-70
2023/11/08 09:39:33;;;;;;;0.10;0.10;;;;;;;8.65;72.20;99205.91;5037267;28;20075;-70
2023/11/08 09:41:59;;;;;;;0.10;0.10;;;;;;;8.62;72.71;99209.19;4957336;28;20047;-68
2023/11/08 09:44:27;;;;;;;0.20;0.17;;;;;;;8.65;72.66;99209.47;4950628;28;20051;-68
2023/11/08 09:46:54;;;;;;;0.10;0.10;;;;;;;8.74;72.99;99200.72;4953546;28;20518;-70
2023/11/08 09:49:22;;;;;;;0.10;0.10;;;;;;;8.78;73.28;99205.34;4932558;28;20051;-70
2023/11/08 09:51:51;;;;;;;0.10;0.10;;;;;;;8.78;72.86;99196.38;4962519;28;20462;-69
2023/11/08 09:54:17;;;;;;;0.10;0.10;;;;;;;8.78;72.78;99204.53;4944680;28;20053;-70
2023/11/08 09:56:46;;;;;;;0.10;0.10;;;;;;;8.76;72.69;99209.47;4938364;28;20489;-70
2023/11/08 09:59:15;;;;;;;0.10;0.10;;;;;;;8.72;72.48;99209.19;4943796;28;20062;-70
2023/11/08 10:01:44;;;;;;;0.10;0.10;;;;;;;8.71;72.29;99207.56;4945626;28;20053;-68
2023/11/08 10:04:12;;;;;;;0.20;0.20;;;;;;;8.76;72.11;99204.81;4954947;28;20426;-69
2023/11/08 10:06:38;;;;;;;0.10;0.10;;;;;;;8.80;72.04;99197.69;4942786;28;20062;-68
2023/11/08 10:09:06;;;;;;;0.10;0.10;;;;;;;8.83;71.68;99201.00;4940890;28;20039;-69
2023/11/08 10:11:35;;;;;;;0.10;0.10;;;;;;;8.84;71.38;99195.25;4945568;28;20067;-68
2023/11/08 10:14:01;;;;;;;0.10;0.10;;;;;;;8.93;71.58;99200.94;4940277;28;20071;-70
2023/11/08 10:16:28;;;;;;;0.10;0.10;;;;;;;8.96;71.28;99199.56;4967175;28;20114;-68
2023/11/08 10:18:57;;;;;;;0.10;0.10;;;;;;;8.93;70.97;99187.31;4980931;28;20189;-68
2023/11/08 10:21:26;;;;;;;0.10;0.10;;;;;;;8.91;70.96;99186.75;4945401;28;20055;-70
2023/11/08 10:23:59;;;;;;;0.10;0.10;;;;;;;9.01;71.26;99188.63;4948331;28;20085;-70
2023/11/08 10:26:27;;;;;;;0.10;0.10;;;;;;;9.14;71.21;99187.22;4947973;28;20161;-70
2023/11/08 10:28:55;;;;;;;0.10;0.10;;;;;;;9.20;70.38;99197.00;4956459;28;20055;-69
2023/11/08 10:31:33;;;;;;;0.10;0.10;;;;;;;9.21;70.12;99201.38;4951377;28;20065;-69
2023/11/08 10:34:00;;;;;;;0.17;0.17;;;;;;;9.10;69.58;99188.88;4933350;28;20058;-68
2023/11/08 10:36:28;;;;;;;0.10;0.10;;;;;;;9.11;69.90;99185.88;4935642;28;20201;-68
2023/11/08 10:38:55;;;;;;;0.13;0.13;;;;;;;9.12;69.89;99187.50;4948955;28;20054;-68
2023/11/08 10:41:22;;;;;;;0.10;0.10;;;;;;;9.14;69.57;99188.03;4940440;28;20154;-68
2023/11/08 10:44:05;;;;;;;0.10;0.10;;;;;;;9.13;69.69;99180.94;4940712;28;20058;-69
2023/11/08 10:46:31;;;;;;;0.10;0.10;;;;;;;9.18;69.89;99191.03;4942463;28;20059;-68
2023/11/08 10:48:59;;;;;;;0.10;0.10;;;;;;;9.14;70.11;99181.78;4997124;28;20043;-68
2023/11/08 10:51:25;;;;;;;0.10;0.10;;;;;;;9.16;70.19;99169.47;4939221;28;20058;-69
2023/11/08 10:53:53;;;;;;;0.10;0.10;;;;;;;9.25;70.18;99175.16;4941570;28;20503;-68
2023/11/08 10:56:22;;;;;;;0.10;0.10;;;;;;;9.23;69.31;99169.16;4937274;28;20039;-68
2023/11/08 10:58:55;;;;;;;0.10;0.10;;;;;;;9.18;69.55;99178.19;4968071;28;20406;-69
2023/11/08 11:01:26;;;;;;;0.10;0.10;;;;;;;9.07;69.66;99179.34;4944489;28;20051;-68
2023/11/08 11:03:59;;;;;;;0.10;0.10;;;;;;;9.07;69.84;99182.88;4946715;28;20050;-70
2023/11/08 11:06:25;;;;;;;0.10;0.10;;;;;;;9.10;69.55;99180.69;4944491;28;20546;-68
2023/11/08 11:08:54;;;;;;;0.10;0.10;;;;;;;9.08;69.38;99181.78;4992892;28;20473;-69
2023/11/08 11:11:21;;;;;;;0.10;0.10;;;;;;;9.18;69.42;99178.19;4980482;28;20557;-70
2023/11/08 11:13:55;;;;;;;0.13;0.13;;;;;;;9.28;69.52;99176.50;4949393;28;20488;-70
2023/11/08 11:16:27;;;;;;;0.10;0.10;;;;;;;9.38;69.01;99181.91;4950772;28;20120;-70
2023/11/08 11:19:00;;;;;;;0.10;0.10;;;;;;;9.38;68.32;99173.72;4956638;28;20900;-69
2023/11/08 11:21:34;;;;;;;0.10;0.10;;;;;;;9.30;68.70;99171.59;4965396;28;20333;-70
2023/11/08 11:24:00;;;;;;;0.20;0.20;;;;;;;9.22;69.38;99179.28;4916651;28;20096;-70
2023/11/08 11:26:46;;;;;;;0.40;0.15;;;;;;;9.23;69.42;99174.63;4951308;28;20108;-70
2023/11/08 11:29:18;;;;;;;0.10;0.10;;;;;;;9.16;69.65;99169.47;4985731;28;20061;-70
2023/11/08 11:31:44;;;;;;;0.10;0.10;;;;;;;9.05;69.19;99168.72;4947261;28;20062;-70
2023/11/08 11:34:42;;;;;;;0.10;0.10;;;;;;;8.93;69.68;99168.22;4950165;28;20142;-69
2023/11/08 11:37:18;;;;;;;0.10;0.10;;;;;;;8.89;69.93;99165.22;4954418;28;20043;-68
2023/11/08 11:40:13;;;;;;;0.10;0.10;;;;;;;8.86;69.93;99154.09;4938442;28;20046;-68
2023/11/08 11:42:42;;;;;;;0.10;0.10;;;;;;;8.89;69.93;99161.69;4936797;28;20104;-70
2023/11/08 11:45:10;;;;;;;0.10;0.10;;;;;;;8.89;69.98;99162.50;4943245;28;20058;-70